sensor_id;sensor_type;location;lat;lon;timestamp;temperature;humidity
314;DHT22;143;51.634;7.112;2023-02-04T00:01:44;8.50;1.00
314;DHT22;143;51.634;7.112;2023-02-04T00:04:13;8.30;1.00
314;DHT22;143;51.634;7.112;2023-02-04T00:06:40;8.30;1.00
314;DHT22;143;51.634;7.112;2023-02-04T00:09:05;8.30;1.00
314;DHT22;143;51.634;7.112;2023-02-04T00:11:31;8.30;1.00
314;DHT22;143;51.634;7.112;2023-02-04T00:13:57;8.00;1.00
314;DHT22;143;51.634;7.112;2023-02-04T00:16:22;8.20;1.00
314;DHT22;143;51.634;7.112;2023-02-04T00:18:48;8.30;1.00
314;DHT22;143;51.634;7.112;2023-02-04T00:21:14;7.80;1.00
314;DHT22;143;51.634;7.112;2023-02-04T00:23:40;7.80;1.00
314;DHT22;143;51.634;7.112;2023-02-04T00:26:05;7.90;1.00
314;DHT22;143;51.634;7.112;2023-02-04T00:28:31;7.70;1.00
314;DHT22;143;51.634;7.112;2023-02-04T00:30:57;7.70;1.00
314;DHT22;143;51.634;7.112;2023-02-04T00:33:23;7.70;1.00
314;DHT22;143;51.634;7.112;2023-02-04T00:35:48;8.20;1.00
314;DHT22;143;51.634;7.112;2023-02-04T00:38:14;7.80;1.00
314;DHT22;143;51.634;7.112;2023-02-04T00:40:40;7.90;1.00
314;DHT22;143;51.634;7.112;2023-02-04T00:43:05;8.20;1.00
314;DHT22;143;51.634;7.112;2023-02-04T00:45:31;7.90;1.00
314;DHT22;143;51.634;7.112;2023-02-04T00:47:57;7.70;1.00
314;DHT22;143;51.634;7.112;2023-02-04T00:50:22;7.90;1.00
314;DHT22;143;51.634;7.112;2023-02-04T00:52:48;8.00;1.00
314;DHT22;143;51.634;7.112;2023-02-04T00:55:14;7.70;1.00
314;DHT22;143;51.634;7.112;2023-02-04T00:57:41;7.70;1.00
314;DHT22;143;51.634;7.112;2023-02-04T01:00:08;7.80;1.00
314;DHT22;143;51.634;7.112;2023-02-04T01:02:34;7.80;1.00
314;DHT22;143;51.634;7.112;2023-02-04T01:04:59;8.00;1.00
314;DHT22;143;51.634;7.112;2023-02-04T01:07:25;8.10;1.00
314;DHT22;143;51.634;7.112;2023-02-04T01:09:51;8.20;1.00
314;DHT22;143;51.634;7.112;2023-02-04T01:12:16;8.10;1.00
314;DHT22;143;51.634;7.112;2023-02-04T01:14:42;8.20;1.00
314;DHT22;143;51.634;7.112;2023-02-04T01:17:08;7.80;1.00
314;DHT22;143;51.634;7.112;2023-02-04T01:19:34;8.00;1.00
314;DHT22;143;51.634;7.112;2023-02-04T01:22:00;7.70;1.00
314;DHT22;143;51.634;7.112;2023-02-04T01:24:25;7.70;1.00
314;DHT22;143;51.634;7.112;2023-02-04T01:26:51;7.80;1.00
314;DHT22;143;51.634;7.112;2023-02-04T01:29:16;8.10;1.00
314;DHT22;143;51.634;7.112;2023-02-04T01:31:42;7.90;1.00
314;DHT22;143;51.634;7.112;2023-02-04T01:34:08;7.80;1.00
314;DHT22;143;51.634;7.112;2023-02-04T01:36:33;8.00;1.00
314;DHT22;143;51.634;7.112;2023-02-04T01:38:59;8.20;1.00
314;DHT22;143;51.634;7.112;2023-02-04T01:41:25;7.80;1.00
314;DHT22;143;51.634;7.112;2023-02-04T01:43:52;7.80;1.00
314;DHT22;143;51.634;7.112;2023-02-04T01:46:18;8.20;1.00
314;DHT22;143;51.634;7.112;2023-02-04T01:48:44;8.10;1.00
314;DHT22;143;51.634;7.112;2023-02-04T01:51:13;7.70;1.00
314;DHT22;143;51.634;7.112;2023-02-04T01:53:40;7.90;1.00
314;DHT22;143;51.634;7.112;2023-02-04T01:56:17;7.70;1.00
314;DHT22;143;51.634;7.112;2023-02-04T01:58:45;7.90;1.00
314;DHT22;143;51.634;7.112;2023-02-04T02:01:15;7.70;1.00
314;DHT22;143;51.634;7.112;2023-02-04T02:03:57;7.90;1.00
314;DHT22;143;51.634;7.112;2023-02-04T02:06:23;7.90;1.00
314;DHT22;143;51.634;7.112;2023-02-04T02:08:48;8.00;1.00
314;DHT22;143;51.634;7.112;2023-02-04T02:11:14;8.30;1.00
314;DHT22;143;51.634;7.112;2023-02-04T02:13:40;8.00;1.00
314;DHT22;143;51.634;7.112;2023-02-04T02:16:06;8.20;1.00
314;DHT22;143;51.634;7.112;2023-02-04T02:18:31;8.10;1.00
314;DHT22;143;51.634;7.112;2023-02-04T02:20:59;8.20;1.00
314;DHT22;143;51.634;7.112;2023-02-04T02:23:54;8.20;1.00
314;DHT22;143;51.634;7.112;2023-02-04T02:26:22;8.20;1.00
314;DHT22;143;51.634;7.112;2023-02-04T02:28:48;8.30;1.00
314;DHT22;143;51.634;7.112;2023-02-04T02:31:15;8.10;1.00
314;DHT22;143;51.634;7.112;2023-02-04T02:33:43;8.00;1.00
314;DHT22;143;51.634;7.112;2023-02-04T02:36:09;8.30;1.00
314;DHT22;143;51.634;7.112;2023-02-04T02:38:35;8.30;1.00
314;DHT22;143;51.634;7.112;2023-02-04T02:41:02;8.30;1.00
314;DHT22;143;51.634;7.112;2023-02-04T02:43:29;8.10;1.00
314;DHT22;143;51.634;7.112;2023-02-04T02:45:57;8.10;1.00
314;DHT22;143;51.634;7.112;2023-02-04T02:48:24;8.50;1.00
314;DHT22;143;51.634;7.112;2023-02-04T02:50:50;8.30;1.00
314;DHT22;143;51.634;7.112;2023-02-04T02:53:18;8.30;1.00
314;DHT22;143;51.634;7.112;2023-02-04T02:55:44;8.10;1.00
314;DHT22;143;51.634;7.112;2023-02-04T02:58:17;8.30;1.00
314;DHT22;143;51.634;7.112;2023-02-04T03:00:44;8.00;1.00
314;DHT22;143;51.634;7.112;2023-02-04T03:03:15;8.10;1.00
314;DHT22;143;51.634;7.112;2023-02-04T03:05:44;8.20;1.00
314;DHT22;143;51.634;7.112;2023-02-04T03:08:13;8.10;1.00
314;DHT22;143;51.634;7.112;2023-02-04T03:10:40;7.90;1.00
314;DHT22;143;51.634;7.112;2023-02-04T03:13:06;8.00;1.00
314;DHT22;143;51.634;7.112;2023-02-04T03:15:33;8.20;1.00
314;DHT22;143;51.634;7.112;2023-02-04T03:17:59;8.20;1.00
314;DHT22;143;51.634;7.112;2023-02-04T03:20:27;8.00;1.00
314;DHT22;143;51.634;7.112;2023-02-04T03:22:54;8.00;1.00
314;DHT22;143;51.634;7.112;2023-02-04T03:25:21;8.20;1.00
314;DHT22;143;51.634;7.112;2023-02-04T03:27:57;8.00;1.00
314;DHT22;143;51.634;7.112;2023-02-04T03:30:25;8.00;1.00
314;DHT22;143;51.634;7.112;2023-02-04T03:32:50;8.10;1.00
314;DHT22;143;51.634;7.112;2023-02-04T03:35:16;8.20;1.00
314;DHT22;143;51.634;7.112;2023-02-04T03:37:42;8.10;1.00
314;DHT22;143;51.634;7.112;2023-02-04T03:40:09;8.20;1.00
314;DHT22;143;51.634;7.112;2023-02-04T03:42:35;8.10;1.00
314;DHT22;143;51.634;7.112;2023-02-04T03:45:01;8.20;1.00
314;DHT22;143;51.634;7.112;2023-02-04T03:47:26;8.00;1.00
314;DHT22;143;51.634;7.112;2023-02-04T03:49:52;8.20;1.00
314;DHT22;143;51.634;7.112;2023-02-04T03:52:18;8.10;1.00
314;DHT22;143;51.634;7.112;2023-02-04T03:54:44;7.70;1.00
314;DHT22;143;51.634;7.112;2023-02-04T03:57:10;7.70;1.00
314;DHT22;143;51.634;7.112;2023-02-04T03:59:36;7.90;1.00
314;DHT22;143;51.634;7.112;2023-02-04T04:02:02;8.10;1.00
314;DHT22;143;51.634;7.112;2023-02-04T04:04:28;7.70;1.00
314;DHT22;143;51.634;7.112;2023-02-04T04:06:54;8.20;1.00
314;DHT22;143;51.634;7.112;2023-02-04T04:09:19;7.70;1.00
314;DHT22;143;51.634;7.112;2023-02-04T04:11:45;7.70;1.00
314;DHT22;143;51.634;7.112;2023-02-04T04:14:11;7.70;1.00
314;DHT22;143;51.634;7.112;2023-02-04T04:16:36;7.70;1.00
314;DHT22;143;51.634;7.112;2023-02-04T04:19:02;7.70;1.00
314;DHT22;143;51.634;7.112;2023-02-04T04:21:28;7.90;1.00
314;DHT22;143;51.634;7.112;2023-02-04T04:23:54;7.90;1.00
314;DHT22;143;51.634;7.112;2023-02-04T04:26:19;7.90;1.00
314;DHT22;143;51.634;7.112;2023-02-04T04:28:45;8.00;1.00
314;DHT22;143;51.634;7.112;2023-02-04T04:31:11;7.90;1.00
314;DHT22;143;51.634;7.112;2023-02-04T04:33:36;8.00;1.00
314;DHT22;143;51.634;7.112;2023-02-04T04:36:04;7.90;1.00
314;DHT22;143;51.634;7.112;2023-02-04T04:38:29;7.90;1.00
314;DHT22;143;51.634;7.112;2023-02-04T04:40:55;7.90;1.00
314;DHT22;143;51.634;7.112;2023-02-04T04:43:21;7.90;1.00
314;DHT22;143;51.634;7.112;2023-02-04T04:45:46;7.90;1.00
314;DHT22;143;51.634;7.112;2023-02-04T04:48:12;7.80;1.00
314;DHT22;143;51.634;7.112;2023-02-04T04:50:38;8.20;1.00
314;DHT22;143;51.634;7.112;2023-02-04T04:53:03;8.00;1.00
314;DHT22;143;51.634;7.112;2023-02-04T04:55:29;8.20;1.00
314;DHT22;143;51.634;7.112;2023-02-04T04:57:55;8.20;1.00
314;DHT22;143;51.634;7.112;2023-02-04T05:00:21;8.10;1.00
314;DHT22;143;51.634;7.112;2023-02-04T05:02:46;7.80;1.00
314;DHT22;143;51.634;7.112;2023-02-04T05:05:13;8.10;1.00
314;DHT22;143;51.634;7.112;2023-02-04T05:07:38;7.70;1.00
314;DHT22;143;51.634;7.112;2023-02-04T05:10:05;7.70;1.00
314;DHT22;143;51.634;7.112;2023-02-04T05:12:31;7.70;1.00
314;DHT22;143;51.634;7.112;2023-02-04T05:14:57;7.80;1.00
314;DHT22;143;51.634;7.112;2023-02-04T05:17:22;8.10;1.00
314;DHT22;143;51.634;7.112;2023-02-04T05:19:48;7.90;1.00
314;DHT22;143;51.634;7.112;2023-02-04T05:22:14;7.90;1.00
314;DHT22;143;51.634;7.112;2023-02-04T05:24:39;7.90;1.00
314;DHT22;143;51.634;7.112;2023-02-04T05:27:05;7.80;1.00
314;DHT22;143;51.634;7.112;2023-02-04T05:29:30;8.10;1.00
314;DHT22;143;51.634;7.112;2023-02-04T05:31:56;8.10;1.00
314;DHT22;143;51.634;7.112;2023-02-04T05:34:22;8.00;1.00
314;DHT22;143;51.634;7.112;2023-02-04T05:36:47;8.20;1.00
314;DHT22;143;51.634;7.112;2023-02-04T05:39:13;8.00;1.00
314;DHT22;143;51.634;7.112;2023-02-04T05:41:39;8.10;1.00
314;DHT22;143;51.634;7.112;2023-02-04T05:44:04;8.00;1.00
314;DHT22;143;51.634;7.112;2023-02-04T05:46:30;8.20;1.00
314;DHT22;143;51.634;7.112;2023-02-04T05:48:56;8.00;1.00
314;DHT22;143;51.634;7.112;2023-02-04T05:51:22;8.20;1.00
314;DHT22;143;51.634;7.112;2023-02-04T05:53:47;8.00;1.00
314;DHT22;143;51.634;7.112;2023-02-04T05:56:14;8.10;1.00
314;DHT22;143;51.634;7.112;2023-02-04T05:58:39;8.00;1.00
314;DHT22;143;51.634;7.112;2023-02-04T06:01:05;8.20;1.00
314;DHT22;143;51.634;7.112;2023-02-04T06:03:31;8.00;1.00
314;DHT22;143;51.634;7.112;2023-02-04T06:05:57;8.30;1.00
314;DHT22;143;51.634;7.112;2023-02-04T06:08:23;8.20;1.00
314;DHT22;143;51.634;7.112;2023-02-04T06:10:49;8.30;1.00
314;DHT22;143;51.634;7.112;2023-02-04T06:13:15;8.00;1.00
314;DHT22;143;51.634;7.112;2023-02-04T06:15:40;8.20;1.00
314;DHT22;143;51.634;7.112;2023-02-04T06:18:06;8.20;1.00
314;DHT22;143;51.634;7.112;2023-02-04T06:20:32;8.20;1.00
314;DHT22;143;51.634;7.112;2023-02-04T06:22:58;8.00;1.00
314;DHT22;143;51.634;7.112;2023-02-04T06:25:23;8.20;1.00
314;DHT22;143;51.634;7.112;2023-02-04T06:27:49;8.00;1.00
314;DHT22;143;51.634;7.112;2023-02-04T06:30:16;8.20;1.00
314;DHT22;143;51.634;7.112;2023-02-04T06:32:41;8.10;1.00
314;DHT22;143;51.634;7.112;2023-02-04T06:35:08;8.00;1.00
314;DHT22;143;51.634;7.112;2023-02-04T06:37:34;8.20;1.00
314;DHT22;143;51.634;7.112;2023-02-04T06:39:59;8.00;1.00
314;DHT22;143;51.634;7.112;2023-02-04T06:42:25;8.20;1.00
314;DHT22;143;51.634;7.112;2023-02-04T06:44:51;8.00;1.00
314;DHT22;143;51.634;7.112;2023-02-04T06:47:18;8.20;1.00
314;DHT22;143;51.634;7.112;2023-02-04T06:49:44;8.00;1.00
314;DHT22;143;51.634;7.112;2023-02-04T06:52:09;8.20;1.00
314;DHT22;143;51.634;7.112;2023-02-04T06:54:36;8.10;1.00
314;DHT22;143;51.634;7.112;2023-02-04T06:57:02;8.00;1.00
314;DHT22;143;51.634;7.112;2023-02-04T06:59:32;8.20;1.00
314;DHT22;143;51.634;7.112;2023-02-04T07:01:58;8.00;1.00
314;DHT22;143;51.634;7.112;2023-02-04T07:04:24;8.00;1.00
314;DHT22;143;51.634;7.112;2023-02-04T07:06:49;8.20;1.00
314;DHT22;143;51.634;7.112;2023-02-04T07:09:15;8.00;1.00
314;DHT22;143;51.634;7.112;2023-02-04T07:11:41;8.20;1.00
314;DHT22;143;51.634;7.112;2023-02-04T07:14:07;8.10;1.00
314;DHT22;143;51.634;7.112;2023-02-04T07:16:34;8.00;1.00
314;DHT22;143;51.634;7.112;2023-02-04T07:19:00;8.20;1.00
314;DHT22;143;51.634;7.112;2023-02-04T07:21:26;8.10;1.00
314;DHT22;143;51.634;7.112;2023-02-04T07:23:51;8.00;1.00
314;DHT22;143;51.634;7.112;2023-02-04T07:26:17;8.20;1.00
314;DHT22;143;51.634;7.112;2023-02-04T07:28:43;7.80;1.00
314;DHT22;143;51.634;7.112;2023-02-04T07:31:09;8.20;1.00
314;DHT22;143;51.634;7.112;2023-02-04T07:33:35;8.10;1.00
314;DHT22;143;51.634;7.112;2023-02-04T07:36:00;8.30;1.00
314;DHT22;143;51.634;7.112;2023-02-04T07:38:26;8.00;1.00
314;DHT22;143;51.634;7.112;2023-02-04T07:40:52;8.20;1.00
314;DHT22;143;51.634;7.112;2023-02-04T07:43:17;8.00;1.00
314;DHT22;143;51.634;7.112;2023-02-04T07:45:43;7.90;1.00
314;DHT22;143;51.634;7.112;2023-02-04T07:48:09;8.00;1.00
314;DHT22;143;51.634;7.112;2023-02-04T07:50:35;8.10;1.00
314;DHT22;143;51.634;7.112;2023-02-04T07:53:01;8.20;1.00
314;DHT22;143;51.634;7.112;2023-02-04T07:55:27;8.10;1.00
314;DHT22;143;51.634;7.112;2023-02-04T07:57:53;8.20;1.00
314;DHT22;143;51.634;7.112;2023-02-04T08:00:19;8.00;1.00
314;DHT22;143;51.634;7.112;2023-02-04T08:02:45;8.20;1.00
314;DHT22;143;51.634;7.112;2023-02-04T08:05:10;8.00;1.00
314;DHT22;143;51.634;7.112;2023-02-04T08:07:36;8.20;1.00
314;DHT22;143;51.634;7.112;2023-02-04T08:10:03;8.20;1.00
314;DHT22;143;51.634;7.112;2023-02-04T08:12:29;8.00;1.00
314;DHT22;143;51.634;7.112;2023-02-04T08:14:54;8.00;1.00
314;DHT22;143;51.634;7.112;2023-02-04T08:17:20;8.20;1.00
314;DHT22;143;51.634;7.112;2023-02-04T08:19:46;8.00;1.00
314;DHT22;143;51.634;7.112;2023-02-04T08:22:11;7.90;1.00
314;DHT22;143;51.634;7.112;2023-02-04T08:24:37;8.00;1.00
314;DHT22;143;51.634;7.112;2023-02-04T08:27:03;8.00;1.00
314;DHT22;143;51.634;7.112;2023-02-04T08:29:29;8.30;1.00
314;DHT22;143;51.634;7.112;2023-02-04T08:31:54;8.00;1.00
314;DHT22;143;51.634;7.112;2023-02-04T08:34:20;7.90;1.00
314;DHT22;143;51.634;7.112;2023-02-04T08:36:46;8.00;1.00
314;DHT22;143;51.634;7.112;2023-02-04T08:39:12;8.20;1.00
314;DHT22;143;51.634;7.112;2023-02-04T08:41:38;8.20;1.00
314;DHT22;143;51.634;7.112;2023-02-04T08:44:03;8.10;1.00
314;DHT22;143;51.634;7.112;2023-02-04T08:46:29;8.50;1.00
314;DHT22;143;51.634;7.112;2023-02-04T08:48:55;8.50;1.00
314;DHT22;143;51.634;7.112;2023-02-04T08:51:20;8.50;1.00
314;DHT22;143;51.634;7.112;2023-02-04T08:53:46;8.60;1.00
314;DHT22;143;51.634;7.112;2023-02-04T08:56:12;8.50;1.00
314;DHT22;143;51.634;7.112;2023-02-04T08:58:41;8.50;1.00
314;DHT22;143;51.634;7.112;2023-02-04T09:01:07;8.50;1.00
314;DHT22;143;51.634;7.112;2023-02-04T09:03:36;8.50;1.00
314;DHT22;143;51.634;7.112;2023-02-04T09:06:01;8.50;1.00
314;DHT22;143;51.634;7.112;2023-02-04T09:08:27;8.60;1.00
314;DHT22;143;51.634;7.112;2023-02-04T09:10:53;8.50;1.00
314;DHT22;143;51.634;7.112;2023-02-04T09:13:18;8.60;1.00
314;DHT22;143;51.634;7.112;2023-02-04T09:15:44;9.00;1.00
314;DHT22;143;51.634;7.112;2023-02-04T09:18:10;8.70;1.00
314;DHT22;143;51.634;7.112;2023-02-04T09:20:41;8.70;1.00
314;DHT22;143;51.634;7.112;2023-02-04T09:23:06;9.00;1.00
314;DHT22;143;51.634;7.112;2023-02-04T09:25:34;9.00;1.00
314;DHT22;143;51.634;7.112;2023-02-04T09:28:00;9.20;1.00
314;DHT22;143;51.634;7.112;2023-02-04T09:30:25;9.00;1.00
314;DHT22;143;51.634;7.112;2023-02-04T09:32:51;9.30;1.00
314;DHT22;143;51.634;7.112;2023-02-04T09:35:17;9.30;1.00
314;DHT22;143;51.634;7.112;2023-02-04T09:37:42;9.40;1.00
314;DHT22;143;51.634;7.112;2023-02-04T09:40:19;9.50;1.00
314;DHT22;143;51.634;7.112;2023-02-04T09:42:48;9.50;1.00
314;DHT22;143;51.634;7.112;2023-02-04T09:45:17;9.50;1.00
314;DHT22;143;51.634;7.112;2023-02-04T09:47:43;9.60;1.00
314;DHT22;143;51.634;7.112;2023-02-04T09:50:17;9.70;1.00
314;DHT22;143;51.634;7.112;2023-02-04T09:52:46;9.70;1.00
314;DHT22;143;51.634;7.112;2023-02-04T09:55:14;9.70;1.00
314;DHT22;143;51.634;7.112;2023-02-04T09:57:40;9.70;1.00
314;DHT22;143;51.634;7.112;2023-02-04T10:02:43;9.50;1.00
314;DHT22;143;51.634;7.112;2023-02-04T10:05:17;9.70;1.00
314;DHT22;143;51.634;7.112;2023-02-04T10:07:44;9.60;1.00
314;DHT22;143;51.634;7.112;2023-02-04T10:10:18;9.80;1.00
314;DHT22;143;51.634;7.112;2023-02-04T10:12:45;9.60;1.00
314;DHT22;143;51.634;7.112;2023-02-04T10:15:16;9.70;1.00
314;DHT22;143;51.634;7.112;2023-02-04T10:17:44;9.80;1.00
314;DHT22;143;51.634;7.112;2023-02-04T10:20:21;9.90;1.00
314;DHT22;143;51.634;7.112;2023-02-04T10:22:47;9.90;1.00
314;DHT22;143;51.634;7.112;2023-02-04T10:25:16;9.90;1.00
314;DHT22;143;51.634;7.112;2023-02-04T10:27:56;10.20;1.00
314;DHT22;143;51.634;7.112;2023-02-04T10:30:25;10.20;1.00
314;DHT22;143;51.634;7.112;2023-02-04T10:32:51;10.30;1.00
314;DHT22;143;51.634;7.112;2023-02-04T10:35:19;10.30;1.00
314;DHT22;143;51.634;7.112;2023-02-04T10:37:45;10.30;1.00
314;DHT22;143;51.634;7.112;2023-02-04T10:40:32;10.30;1.00
314;DHT22;143;51.634;7.112;2023-02-04T10:42:59;10.30;1.00
314;DHT22;143;51.634;7.112;2023-02-04T10:45:31;10.30;1.00
314;DHT22;143;51.634;7.112;2023-02-04T10:47:57;10.20;1.00
314;DHT22;143;51.634;7.112;2023-02-04T10:50:24;10.20;1.00
314;DHT22;143;51.634;7.112;2023-02-04T10:52:58;10.30;1.00
314;DHT22;143;51.634;7.112;2023-02-04T10:55:45;10.00;1.00
314;DHT22;143;51.634;7.112;2023-02-04T10:58:23;10.30;1.00
314;DHT22;143;51.634;7.112;2023-02-04T11:00:51;10.30;1.00
314;DHT22;143;51.634;7.112;2023-02-04T11:03:27;10.20;1.00
314;DHT22;143;51.634;7.112;2023-02-04T11:05:58;10.30;1.00
314;DHT22;143;51.634;7.112;2023-02-04T11:08:25;10.50;1.00
314;DHT22;143;51.634;7.112;2023-02-04T11:10:57;10.70;1.00
314;DHT22;143;51.634;7.112;2023-02-04T11:24:19;10.50;1.00
314;DHT22;143;51.634;7.112;2023-02-04T11:26:50;10.50;1.00
314;DHT22;143;51.634;7.112;2023-02-04T11:29:29;10.50;1.00
314;DHT22;143;51.634;7.112;2023-02-04T11:32:05;10.60;1.00
314;DHT22;143;51.634;7.112;2023-02-04T11:34:45;10.50;1.00
314;DHT22;143;51.634;7.112;2023-02-04T11:37:17;10.80;1.00
314;DHT22;143;51.634;7.112;2023-02-04T11:39:46;10.70;1.00
314;DHT22;143;51.634;7.112;2023-02-04T11:42:31;10.80;1.00
314;DHT22;143;51.634;7.112;2023-02-04T11:45:12;10.90;1.00
314;DHT22;143;51.634;7.112;2023-02-04T11:47:38;10.70;1.00
314;DHT22;143;51.634;7.112;2023-02-04T11:50:33;10.60;1.00
314;DHT22;143;51.634;7.112;2023-02-04T11:53:00;10.50;1.00
314;DHT22;143;51.634;7.112;2023-02-04T11:55:34;10.60;1.00
314;DHT22;143;51.634;7.112;2023-02-04T11:57:59;10.50;1.00
314;DHT22;143;51.634;7.112;2023-02-04T12:00:29;10.80;1.00
314;DHT22;143;51.634;7.112;2023-02-04T12:02:58;10.60;1.00
314;DHT22;143;51.634;7.112;2023-02-04T12:05:44;11.00;1.00
314;DHT22;143;51.634;7.112;2023-02-04T12:11:11;10.70;1.00
314;DHT22;143;51.634;7.112;2023-02-04T12:13:53;10.70;1.00
314;DHT22;143;51.634;7.112;2023-02-04T12:16:19;10.90;1.00
314;DHT22;143;51.634;7.112;2023-02-04T12:18:45;10.90;1.00
314;DHT22;143;51.634;7.112;2023-02-04T12:21:11;11.00;1.00
314;DHT22;143;51.634;7.112;2023-02-04T12:23:38;10.80;1.00
314;DHT22;143;51.634;7.112;2023-02-04T12:26:04;10.60;1.00
314;DHT22;143;51.634;7.112;2023-02-04T12:28:30;10.80;1.00
314;DHT22;143;51.634;7.112;2023-02-04T12:30:56;10.50;1.00
314;DHT22;143;51.634;7.112;2023-02-04T12:33:22;10.40;1.00
314;DHT22;143;51.634;7.112;2023-02-04T12:35:48;10.50;1.00
314;DHT22;143;51.634;7.112;2023-02-04T12:38:14;10.40;1.00
314;DHT22;143;51.634;7.112;2023-02-04T12:40:39;10.50;1.00
314;DHT22;143;51.634;7.112;2023-02-04T12:43:05;10.50;1.00
314;DHT22;143;51.634;7.112;2023-02-04T12:45:31;10.40;1.00
314;DHT22;143;51.634;7.112;2023-02-04T12:47:57;10.70;1.00
314;DHT22;143;51.634;7.112;2023-02-04T12:50:23;10.60;1.00
314;DHT22;143;51.634;7.112;2023-02-04T12:52:51;10.70;1.00
314;DHT22;143;51.634;7.112;2023-02-04T12:55:17;10.60;1.00
314;DHT22;143;51.634;7.112;2023-02-04T12:57:43;10.90;1.00
314;DHT22;143;51.634;7.112;2023-02-04T13:00:10;10.60;1.00
314;DHT22;143;51.634;7.112;2023-02-04T13:02:36;10.80;1.00
314;DHT22;143;51.634;7.112;2023-02-04T13:05:02;10.70;1.00
314;DHT22;143;51.634;7.112;2023-02-04T13:07:27;11.00;1.00
314;DHT22;143;51.634;7.112;2023-02-04T13:09:53;10.90;1.00
314;DHT22;143;51.634;7.112;2023-02-04T13:12:19;11.20;1.00
314;DHT22;143;51.634;7.112;2023-02-04T13:14:44;11.40;1.00
314;DHT22;143;51.634;7.112;2023-02-04T13:17:10;11.60;1.00
314;DHT22;143;51.634;7.112;2023-02-04T13:19:36;11.60;1.00
314;DHT22;143;51.634;7.112;2023-02-04T13:22:02;11.90;1.00
314;DHT22;143;51.634;7.112;2023-02-04T13:24:28;12.10;1.00
314;DHT22;143;51.634;7.112;2023-02-04T13:26:54;12.50;99.90
314;DHT22;143;51.634;7.112;2023-02-04T13:29:20;12.60;99.90
314;DHT22;143;51.634;7.112;2023-02-04T13:31:47;13.10;99.90
314;DHT22;143;51.634;7.112;2023-02-04T13:34:12;13.30;99.90
314;DHT22;143;51.634;7.112;2023-02-04T13:36:38;13.40;99.90
314;DHT22;143;51.634;7.112;2023-02-04T13:39:04;13.50;99.90
314;DHT22;143;51.634;7.112;2023-02-04T13:41:30;13.60;99.90
314;DHT22;143;51.634;7.112;2023-02-04T13:43:56;13.60;99.90
314;DHT22;143;51.634;7.112;2023-02-04T13:46:23;13.50;96.70
314;DHT22;143;51.634;7.112;2023-02-04T13:48:49;13.60;90.40
314;DHT22;143;51.634;7.112;2023-02-04T13:51:16;13.60;90.40
314;DHT22;143;51.634;7.112;2023-02-04T13:53:41;13.80;75.80
314;DHT22;143;51.634;7.112;2023-02-04T13:56:07;13.90;34.10
314;DHT22;143;51.634;7.112;2023-02-04T13:58:33;14.10;42.00
314;DHT22;143;51.634;7.112;2023-02-04T14:00:59;14.30;44.00
314;DHT22;143;51.634;7.112;2023-02-04T14:03:26;14.50;13.30
314;DHT22;143;51.634;7.112;2023-02-04T14:05:53;14.70;1.00
314;DHT22;143;51.634;7.112;2023-02-04T14:08:19;14.90;1.00
314;DHT22;143;51.634;7.112;2023-02-04T14:10:45;15.10;1.00
314;DHT22;143;51.634;7.112;2023-02-04T14:13:10;15.40;1.00
314;DHT22;143;51.634;7.112;2023-02-04T14:15:36;15.60;1.00
314;DHT22;143;51.634;7.112;2023-02-04T14:18:03;15.70;1.00
314;DHT22;143;51.634;7.112;2023-02-04T14:20:30;15.60;1.00
314;DHT22;143;51.634;7.112;2023-02-04T14:22:55;15.50;1.00
314;DHT22;143;51.634;7.112;2023-02-04T14:25:21;15.40;1.00
314;DHT22;143;51.634;7.112;2023-02-04T14:27:47;15.20;1.00
314;DHT22;143;51.634;7.112;2023-02-04T14:30:18;15.00;1.00
314;DHT22;143;51.634;7.112;2023-02-04T14:32:44;14.90;1.00
314;DHT22;143;51.634;7.112;2023-02-04T14:35:10;14.70;1.00
314;DHT22;143;51.634;7.112;2023-02-04T14:37:36;14.60;1.00
314;DHT22;143;51.634;7.112;2023-02-04T14:40:02;14.40;1.00
314;DHT22;143;51.634;7.112;2023-02-04T14:42:28;14.30;1.00
314;DHT22;143;51.634;7.112;2023-02-04T14:44:54;14.20;1.00
314;DHT22;143;51.634;7.112;2023-02-04T14:47:20;14.10;1.00
314;DHT22;143;51.634;7.112;2023-02-04T14:49:45;14.00;1.00
314;DHT22;143;51.634;7.112;2023-02-04T14:52:11;13.90;1.00
314;DHT22;143;51.634;7.112;2023-02-04T14:54:37;13.90;1.00
314;DHT22;143;51.634;7.112;2023-02-04T14:57:03;13.80;1.00
314;DHT22;143;51.634;7.112;2023-02-04T14:59:29;13.70;1.00
314;DHT22;143;51.634;7.112;2023-02-04T15:01:54;13.60;1.00
314;DHT22;143;51.634;7.112;2023-02-04T15:04:20;13.50;1.00
314;DHT22;143;51.634;7.112;2023-02-04T15:06:46;13.40;1.00
314;DHT22;143;51.634;7.112;2023-02-04T15:09:12;13.30;1.00
314;DHT22;143;51.634;7.112;2023-02-04T15:11:38;13.20;1.00
314;DHT22;143;51.634;7.112;2023-02-04T15:14:03;13.10;1.00
314;DHT22;143;51.634;7.112;2023-02-04T15:16:29;13.00;1.00
314;DHT22;143;51.634;7.112;2023-02-04T15:18:55;13.00;1.00
314;DHT22;143;51.634;7.112;2023-02-04T15:21:21;12.90;1.00
314;DHT22;143;51.634;7.112;2023-02-04T15:23:46;12.80;1.00
314;DHT22;143;51.634;7.112;2023-02-04T15:26:13;12.80;1.00
314;DHT22;143;51.634;7.112;2023-02-04T15:28:38;12.70;1.00
314;DHT22;143;51.634;7.112;2023-02-04T15:31:04;12.60;1.00
314;DHT22;143;51.634;7.112;2023-02-04T15:33:30;12.50;1.00
314;DHT22;143;51.634;7.112;2023-02-04T15:35:56;12.40;1.00
314;DHT22;143;51.634;7.112;2023-02-04T15:38:21;12.30;1.00
314;DHT22;143;51.634;7.112;2023-02-04T15:40:47;12.30;1.00
314;DHT22;143;51.634;7.112;2023-02-04T15:43:13;12.20;1.00
314;DHT22;143;51.634;7.112;2023-02-04T15:45:39;12.20;1.00
314;DHT22;143;51.634;7.112;2023-02-04T15:48:08;12.10;12.80
314;DHT22;143;51.634;7.112;2023-02-04T15:50:34;12.10;31.50
314;DHT22;143;51.634;7.112;2023-02-04T15:53:00;12.00;49.00
314;DHT22;143;51.634;7.112;2023-02-04T15:55:25;11.90;64.50
314;DHT22;143;51.634;7.112;2023-02-04T15:57:51;11.80;85.40
314;DHT22;143;51.634;7.112;2023-02-04T16:00:17;11.80;99.80
314;DHT22;143;51.634;7.112;2023-02-04T16:02:43;11.70;99.90
314;DHT22;143;51.634;7.112;2023-02-04T16:05:08;11.70;99.90
314;DHT22;143;51.634;7.112;2023-02-04T16:07:34;11.80;99.90
314;DHT22;143;51.634;7.112;2023-02-04T16:10:00;11.60;99.90
314;DHT22;143;51.634;7.112;2023-02-04T16:12:25;11.50;99.90
314;DHT22;143;51.634;7.112;2023-02-04T16:14:51;11.50;99.90
314;DHT22;143;51.634;7.112;2023-02-04T16:17:17;11.50;99.90
314;DHT22;143;51.634;7.112;2023-02-04T16:19:42;11.40;99.90
314;DHT22;143;51.634;7.112;2023-02-04T16:22:08;11.20;99.90
314;DHT22;143;51.634;7.112;2023-02-04T16:24:34;11.30;99.90
314;DHT22;143;51.634;7.112;2023-02-04T16:26:59;11.20;99.90
314;DHT22;143;51.634;7.112;2023-02-04T16:29:25;11.10;99.90
314;DHT22;143;51.634;7.112;2023-02-04T16:31:51;11.00;99.90
314;DHT22;143;51.634;7.112;2023-02-04T16:34:18;10.90;99.90
314;DHT22;143;51.634;7.112;2023-02-04T16:36:44;10.90;99.90
314;DHT22;143;51.634;7.112;2023-02-04T16:39:09;10.90;99.90
314;DHT22;143;51.634;7.112;2023-02-04T16:41:35;10.90;99.90
314;DHT22;143;51.634;7.112;2023-02-04T16:44:01;10.90;99.90
314;DHT22;143;51.634;7.112;2023-02-04T16:46:27;10.90;99.90
314;DHT22;143;51.634;7.112;2023-02-04T16:48:55;10.60;99.90
314;DHT22;143;51.634;7.112;2023-02-04T16:51:20;10.70;99.90
314;DHT22;143;51.634;7.112;2023-02-04T16:53:46;10.60;99.90
314;DHT22;143;51.634;7.112;2023-02-04T16:56:12;10.50;99.90
314;DHT22;143;51.634;7.112;2023-02-04T16:58:37;10.30;99.90
314;DHT22;143;51.634;7.112;2023-02-04T17:01:05;10.40;99.90
314;DHT22;143;51.634;7.112;2023-02-04T17:03:30;10.30;99.90
314;DHT22;143;51.634;7.112;2023-02-04T17:05:56;10.30;99.90
314;DHT22;143;51.634;7.112;2023-02-04T17:08:22;10.20;99.90
314;DHT22;143;51.634;7.112;2023-02-04T17:10:48;10.30;99.90
314;DHT22;143;51.634;7.112;2023-02-04T17:13:32;10.40;99.90
314;DHT22;143;51.634;7.112;2023-02-04T17:15:58;10.30;99.90